Argyle's Hourly Summary for Saturday, July 7, 2018
Hour Temp
(f)
RH
(%)
Solar Rad.
(MJ/m2)
Rainfall
(in)
Wind
(mph)
7/7/2018 12:00 AM 76 76 0 0 0.91
7/7/2018 1:00 AM 77 73 0 0 1.78
7/7/2018 2:00 AM 76 75 0 0 0.51
7/7/2018 3:00 AM 75 80 0 0 0.48
7/7/2018 4:00 AM 74 85 0 0 0.73
7/7/2018 5:00 AM 73 89 0 0 1.75
7/7/2018 6:00 AM 73 88 0 0 2.02
7/7/2018 7:00 AM 73 86 0.03 0 1.27
7/7/2018 8:00 AM 75 75 0.33 0 1.85
7/7/2018 9:00 AM 79 63 1.11 0 3.11
7/7/2018 10:00 AM 82 61 1.79 0 4.12
7/7/2018 11:00 AM 84 56 2.42 0 4.72
7/7/2018 12:00 PM 87 53 2.91 0 4.46
7/7/2018 1:00 PM 89 46 3.17 0 5.08
7/7/2018 2:00 PM 91 44 2.81 0 4.34
7/7/2018 3:00 PM 93 39 3.08 0 5.41
7/7/2018 4:00 PM 94 35 2.79 0 5.37
7/7/2018 5:00 PM 94 35 2.09 0 5.64
7/7/2018 6:00 PM 94 33 1.33 0 5.19
7/7/2018 7:00 PM 94 34 1.19 0 6.16
7/7/2018 8:00 PM 91 37 0.51 0 7.64
7/7/2018 9:00 PM 89 40 0.04 0 5.58
7/7/2018 10:00 PM 88 49 0 0 3.56
7/7/2018 11:00 PM 86 50 0 0 3.8
Data Summary 83 58 25.60 0.00 3.56